sensor_id;sensor_type;location;lat;lon;timestamp;P1;durP1;ratioP1;P2;durP2;ratioP2
26951;SDS011;14507;52.418;13.398;2023-06-14T00:01:43;5.80;;;2.58;;
26951;SDS011;14507;52.418;13.398;2023-06-14T00:04:10;8.13;;;3.40;;
26951;SDS011;14507;52.418;13.398;2023-06-14T00:06:41;4.97;;;2.58;;
26951;SDS011;14507;52.418;13.398;2023-06-14T00:09:10;4.57;;;2.20;;
26951;SDS011;14507;52.418;13.398;2023-06-14T00:11:37;11.60;;;2.80;;
26951;SDS011;14507;52.418;13.398;2023-06-14T00:14:03;5.13;;;2.55;;
26951;SDS011;14507;52.418;13.398;2023-06-14T00:16:29;5.78;;;2.30;;
26951;SDS011;14507;52.418;13.398;2023-06-14T00:18:55;8.20;;;2.40;;
26951;SDS011;14507;52.418;13.398;2023-06-14T00:21:21;6.38;;;2.58;;
26951;SDS011;14507;52.418;13.398;2023-06-14T00:23:46;5.20;;;2.42;;
26951;SDS011;14507;52.418;13.398;2023-06-14T00:26:12;9.10;;;2.30;;
26951;SDS011;14507;52.418;13.398;2023-06-14T00:28:37;5.15;;;2.58;;
26951;SDS011;14507;52.418;13.398;2023-06-14T00:31:03;7.50;;;2.47;;
26951;SDS011;14507;52.418;13.398;2023-06-14T00:33:29;5.38;;;2.58;;
26951;SDS011;14507;52.418;13.398;2023-06-14T00:35:55;7.20;;;2.75;;
26951;SDS011;14507;52.418;13.398;2023-06-14T00:38:20;5.43;;;2.75;;
26951;SDS011;14507;52.418;13.398;2023-06-14T00:40:46;5.00;;;2.63;;
26951;SDS011;14507;52.418;13.398;2023-06-14T00:43:12;5.03;;;2.35;;
26951;SDS011;14507;52.418;13.398;2023-06-14T00:45:38;4.72;;;2.70;;
26951;SDS011;14507;52.418;13.398;2023-06-14T00:48:04;4.90;;;2.90;;
26951;SDS011;14507;52.418;13.398;2023-06-14T00:52:58;4.90;;;2.30;;
26951;SDS011;14507;52.418;13.398;2023-06-14T00:55:25;4.40;;;2.70;;
26951;SDS011;14507;52.418;13.398;2023-06-14T00:57:51;6.88;;;2.60;;
26951;SDS011;14507;52.418;13.398;2023-06-14T01:00:18;10.00;;;3.00;;
26951;SDS011;14507;52.418;13.398;2023-06-14T01:02:44;6.57;;;3.40;;
26951;SDS011;14507;52.418;13.398;2023-06-14T01:05:09;6.68;;;3.05;;
26951;SDS011;14507;52.418;13.398;2023-06-14T01:13:23;6.35;;;3.58;;
26951;SDS011;14507;52.418;13.398;2023-06-14T01:16:03;5.70;;;3.13;;
26951;SDS011;14507;52.418;13.398;2023-06-14T01:18:29;5.53;;;3.17;;
26951;SDS011;14507;52.418;13.398;2023-06-14T01:20:55;4.95;;;3.10;;
26951;SDS011;14507;52.418;13.398;2023-06-14T01:23:21;7.45;;;2.95;;
26951;SDS011;14507;52.418;13.398;2023-06-14T01:25:49;9.40;;;3.60;;
26951;SDS011;14507;52.418;13.398;2023-06-14T01:28:17;8.13;;;2.92;;
26951;SDS011;14507;52.418;13.398;2023-06-14T01:30:45;5.35;;;3.08;;
26951;SDS011;14507;52.418;13.398;2023-06-14T01:33:15;4.72;;;3.20;;
26951;SDS011;14507;52.418;13.398;2023-06-14T01:38:09;8.30;;;3.45;;
26951;SDS011;14507;52.418;13.398;2023-06-14T01:40:35;10.07;;;3.65;;
26951;SDS011;14507;52.418;13.398;2023-06-14T01:43:02;7.97;;;3.47;;
26951;SDS011;14507;52.418;13.398;2023-06-14T01:45:29;5.82;;;3.40;;
26951;SDS011;14507;52.418;13.398;2023-06-14T01:47:55;8.55;;;3.42;;
26951;SDS011;14507;52.418;13.398;2023-06-14T01:50:21;5.57;;;3.20;;
26951;SDS011;14507;52.418;13.398;2023-06-14T01:52:47;8.07;;;3.45;;
26951;SDS011;14507;52.418;13.398;2023-06-14T01:55:12;6.75;;;3.35;;
26951;SDS011;14507;52.418;13.398;2023-06-14T01:57:38;6.22;;;3.67;;
26951;SDS011;14507;52.418;13.398;2023-06-14T02:00:04;4.65;;;3.10;;
26951;SDS011;14507;52.418;13.398;2023-06-14T02:02:35;7.15;;;3.17;;
26951;SDS011;14507;52.418;13.398;2023-06-14T02:05:01;6.22;;;3.55;;
26951;SDS011;14507;52.418;13.398;2023-06-14T02:07:26;7.07;;;3.90;;
26951;SDS011;14507;52.418;13.398;2023-06-14T02:09:52;8.43;;;3.70;;
26951;SDS011;14507;52.418;13.398;2023-06-14T02:12:18;9.95;;;4.10;;
26951;SDS011;14507;52.418;13.398;2023-06-14T02:14:43;9.27;;;3.65;;
26951;SDS011;14507;52.418;13.398;2023-06-14T02:17:09;8.05;;;3.45;;
26951;SDS011;14507;52.418;13.398;2023-06-14T02:19:35;5.28;;;3.80;;
26951;SDS011;14507;52.418;13.398;2023-06-14T02:22:01;5.95;;;3.30;;
26951;SDS011;14507;52.418;13.398;2023-06-14T02:24:26;7.47;;;3.95;;
26951;SDS011;14507;52.418;13.398;2023-06-14T02:26:52;8.77;;;4.10;;
26951;SDS011;14507;52.418;13.398;2023-06-14T02:29:18;9.02;;;4.10;;
26951;SDS011;14507;52.418;13.398;2023-06-14T02:31:43;10.90;;;4.00;;
26951;SDS011;14507;52.418;13.398;2023-06-14T02:36:37;5.80;;;3.83;;
26951;SDS011;14507;52.418;13.398;2023-06-14T02:39:06;8.80;;;3.90;;
26951;SDS011;14507;52.418;13.398;2023-06-14T02:41:34;6.22;;;4.13;;
26951;SDS011;14507;52.418;13.398;2023-06-14T02:44:00;9.15;;;4.25;;
26951;SDS011;14507;52.418;13.398;2023-06-14T02:46:25;6.90;;;3.88;;
26951;SDS011;14507;52.418;13.398;2023-06-14T02:48:51;6.40;;;3.85;;
26951;SDS011;14507;52.418;13.398;2023-06-14T02:51:17;9.32;;;3.97;;
26951;SDS011;14507;52.418;13.398;2023-06-14T02:53:42;5.97;;;4.00;;
26951;SDS011;14507;52.418;13.398;2023-06-14T02:56:08;6.85;;;4.60;;
26951;SDS011;14507;52.418;13.398;2023-06-14T02:58:36;6.03;;;4.13;;
26951;SDS011;14507;52.418;13.398;2023-06-14T03:01:01;9.57;;;4.75;;
26951;SDS011;14507;52.418;13.398;2023-06-14T03:03:28;5.47;;;4.03;;
26951;SDS011;14507;52.418;13.398;2023-06-14T03:05:53;7.57;;;4.30;;
26951;SDS011;14507;52.418;13.398;2023-06-14T03:08:19;11.32;;;4.63;;
26951;SDS011;14507;52.418;13.398;2023-06-14T03:10:45;8.57;;;4.70;;
26951;SDS011;14507;52.418;13.398;2023-06-14T03:13:12;9.80;;;4.60;;
26951;SDS011;14507;52.418;13.398;2023-06-14T03:15:38;9.45;;;4.68;;
26951;SDS011;14507;52.418;13.398;2023-06-14T03:18:07;7.70;;;4.38;;
26951;SDS011;14507;52.418;13.398;2023-06-14T03:20:34;9.15;;;5.35;;
26951;SDS011;14507;52.418;13.398;2023-06-14T03:23:03;10.63;;;4.72;;
26951;SDS011;14507;52.418;13.398;2023-06-14T03:25:30;7.75;;;4.53;;
26951;SDS011;14507;52.418;13.398;2023-06-14T03:27:56;9.77;;;4.80;;
26951;SDS011;14507;52.418;13.398;2023-06-14T03:30:22;7.43;;;5.20;;
26951;SDS011;14507;52.418;13.398;2023-06-14T03:32:48;10.43;;;4.60;;
26951;SDS011;14507;52.418;13.398;2023-06-14T03:35:13;10.32;;;4.55;;
26951;SDS011;14507;52.418;13.398;2023-06-14T03:37:46;11.85;;;5.43;;
26951;SDS011;14507;52.418;13.398;2023-06-14T03:40:12;9.43;;;4.97;;
26951;SDS011;14507;52.418;13.398;2023-06-14T03:42:40;9.93;;;4.78;;
26951;SDS011;14507;52.418;13.398;2023-06-14T03:45:06;11.23;;;5.28;;
26951;SDS011;14507;52.418;13.398;2023-06-14T03:47:32;10.63;;;5.68;;
26951;SDS011;14507;52.418;13.398;2023-06-14T03:49:58;10.48;;;4.80;;
26951;SDS011;14507;52.418;13.398;2023-06-14T03:52:25;7.65;;;5.15;;
26951;SDS011;14507;52.418;13.398;2023-06-14T03:54:51;9.73;;;5.15;;
26951;SDS011;14507;52.418;13.398;2023-06-14T03:57:18;10.57;;;5.30;;
26951;SDS011;14507;52.418;13.398;2023-06-14T03:59:45;8.77;;;5.20;;
26951;SDS011;14507;52.418;13.398;2023-06-14T04:02:11;8.23;;;5.20;;
26951;SDS011;14507;52.418;13.398;2023-06-14T04:04:40;10.23;;;5.15;;
26951;SDS011;14507;52.418;13.398;2023-06-14T04:07:09;11.65;;;5.20;;
26951;SDS011;14507;52.418;13.398;2023-06-14T04:09:36;8.70;;;4.47;;
26951;SDS011;14507;52.418;13.398;2023-06-14T04:12:02;14.40;;;5.70;;
26951;SDS011;14507;52.418;13.398;2023-06-14T04:14:28;10.50;;;5.65;;
26951;SDS011;14507;52.418;13.398;2023-06-14T04:16:55;9.18;;;6.00;;
26951;SDS011;14507;52.418;13.398;2023-06-14T04:19:21;11.90;;;5.55;;
26951;SDS011;14507;52.418;13.398;2023-06-14T04:21:47;8.88;;;5.50;;
26951;SDS011;14507;52.418;13.398;2023-06-14T04:24:12;12.40;;;4.95;;
26951;SDS011;14507;52.418;13.398;2023-06-14T04:26:41;13.20;;;5.40;;
26951;SDS011;14507;52.418;13.398;2023-06-14T04:29:12;16.63;;;6.32;;
26951;SDS011;14507;52.418;13.398;2023-06-14T04:31:42;8.85;;;5.60;;
26951;SDS011;14507;52.418;13.398;2023-06-14T04:34:09;14.50;;;5.68;;
26951;SDS011;14507;52.418;13.398;2023-06-14T04:36:40;8.75;;;4.97;;
26951;SDS011;14507;52.418;13.398;2023-06-14T04:39:08;9.05;;;5.45;;
26951;SDS011;14507;52.418;13.398;2023-06-14T04:41:33;10.98;;;5.78;;
26951;SDS011;14507;52.418;13.398;2023-06-14T04:44:00;14.90;;;6.10;;
26951;SDS011;14507;52.418;13.398;2023-06-14T04:46:30;9.75;;;5.28;;
26951;SDS011;14507;52.418;13.398;2023-06-14T04:48:57;9.13;;;5.68;;
26951;SDS011;14507;52.418;13.398;2023-06-14T04:51:27;9.10;;;5.93;;
26951;SDS011;14507;52.418;13.398;2023-06-14T04:53:57;10.23;;;5.50;;
26951;SDS011;14507;52.418;13.398;2023-06-14T04:56:23;16.77;;;6.13;;
26951;SDS011;14507;52.418;13.398;2023-06-14T04:58:52;14.38;;;5.88;;
26951;SDS011;14507;52.418;13.398;2023-06-14T05:01:18;11.32;;;6.57;;
26951;SDS011;14507;52.418;13.398;2023-06-14T05:03:46;10.82;;;5.65;;
26951;SDS011;14507;52.418;13.398;2023-06-14T05:06:14;8.95;;;5.03;;
26951;SDS011;14507;52.418;13.398;2023-06-14T05:08:40;8.07;;;5.13;;
26951;SDS011;14507;52.418;13.398;2023-06-14T05:11:06;8.77;;;5.07;;
26951;SDS011;14507;52.418;13.398;2023-06-14T05:13:32;11.07;;;6.00;;
26951;SDS011;14507;52.418;13.398;2023-06-14T05:15:58;8.45;;;5.57;;
26951;SDS011;14507;52.418;13.398;2023-06-14T05:18:24;7.50;;;5.15;;
26951;SDS011;14507;52.418;13.398;2023-06-14T05:20:50;8.27;;;5.47;;
26951;SDS011;14507;52.418;13.398;2023-06-14T05:23:16;9.45;;;5.25;;
26951;SDS011;14507;52.418;13.398;2023-06-14T05:25:45;8.90;;;4.82;;
26951;SDS011;14507;52.418;13.398;2023-06-14T05:28:11;15.30;;;6.18;;
26951;SDS011;14507;52.418;13.398;2023-06-14T05:30:37;9.35;;;5.95;;
26951;SDS011;14507;52.418;13.398;2023-06-14T05:33:04;9.25;;;5.55;;
26951;SDS011;14507;52.418;13.398;2023-06-14T05:35:30;11.68;;;6.20;;
26951;SDS011;14507;52.418;13.398;2023-06-14T05:37:56;9.05;;;5.28;;
26951;SDS011;14507;52.418;13.398;2023-06-14T05:40:21;10.80;;;5.90;;
26951;SDS011;14507;52.418;13.398;2023-06-14T05:42:47;7.72;;;5.28;;
26951;SDS011;14507;52.418;13.398;2023-06-14T05:45:12;10.63;;;5.15;;
26951;SDS011;14507;52.418;13.398;2023-06-14T05:47:40;8.35;;;5.63;;
26951;SDS011;14507;52.418;13.398;2023-06-14T05:50:06;12.93;;;5.50;;
26951;SDS011;14507;52.418;13.398;2023-06-14T05:52:33;9.73;;;5.40;;
26951;SDS011;14507;52.418;13.398;2023-06-14T05:55:00;23.33;;;6.55;;
26951;SDS011;14507;52.418;13.398;2023-06-14T05:57:26;11.30;;;6.18;;
26951;SDS011;14507;52.418;13.398;2023-06-14T05:59:52;16.02;;;6.05;;
26951;SDS011;14507;52.418;13.398;2023-06-14T06:02:17;10.23;;;5.82;;
26951;SDS011;14507;52.418;13.398;2023-06-14T06:04:43;8.88;;;5.38;;
26951;SDS011;14507;52.418;13.398;2023-06-14T06:07:08;8.52;;;5.57;;
26951;SDS011;14507;52.418;13.398;2023-06-14T06:09:34;8.30;;;5.70;;
26951;SDS011;14507;52.418;13.398;2023-06-14T06:12:00;11.32;;;6.50;;
26951;SDS011;14507;52.418;13.398;2023-06-14T06:14:25;15.20;;;8.38;;
26951;SDS011;14507;52.418;13.398;2023-06-14T06:16:51;9.73;;;6.30;;
26951;SDS011;14507;52.418;13.398;2023-06-14T06:19:17;13.18;;;6.38;;
26951;SDS011;14507;52.418;13.398;2023-06-14T06:21:43;12.60;;;6.60;;
26951;SDS011;14507;52.418;13.398;2023-06-14T06:24:09;12.38;;;6.38;;
26951;SDS011;14507;52.418;13.398;2023-06-14T06:26:35;9.57;;;5.78;;
26951;SDS011;14507;52.418;13.398;2023-06-14T06:29:01;9.98;;;5.88;;
26951;SDS011;14507;52.418;13.398;2023-06-14T06:31:26;9.13;;;5.35;;
26951;SDS011;14507;52.418;13.398;2023-06-14T06:33:53;10.35;;;5.55;;
26951;SDS011;14507;52.418;13.398;2023-06-14T06:36:19;10.95;;;5.85;;
26951;SDS011;14507;52.418;13.398;2023-06-14T06:38:46;11.20;;;5.82;;
26951;SDS011;14507;52.418;13.398;2023-06-14T06:41:12;11.40;;;4.80;;
26951;SDS011;14507;52.418;13.398;2023-06-14T06:43:38;7.82;;;4.53;;
26951;SDS011;14507;52.418;13.398;2023-06-14T06:46:03;12.68;;;5.65;;
26951;SDS011;14507;52.418;13.398;2023-06-14T06:48:29;12.63;;;6.57;;
26951;SDS011;14507;52.418;13.398;2023-06-14T06:50:55;9.25;;;5.70;;
26951;SDS011;14507;52.418;13.398;2023-06-14T06:53:20;10.98;;;6.07;;
26951;SDS011;14507;52.418;13.398;2023-06-14T06:55:46;16.20;;;5.60;;
26951;SDS011;14507;52.418;13.398;2023-06-14T06:58:12;14.30;;;5.90;;
26951;SDS011;14507;52.418;13.398;2023-06-14T07:00:38;9.07;;;5.75;;
26951;SDS011;14507;52.418;13.398;2023-06-14T07:03:04;12.25;;;6.60;;
26951;SDS011;14507;52.418;13.398;2023-06-14T07:05:30;10.45;;;5.93;;
26951;SDS011;14507;52.418;13.398;2023-06-14T07:07:56;10.05;;;5.47;;
26951;SDS011;14507;52.418;13.398;2023-06-14T07:10:22;13.32;;;6.10;;
26951;SDS011;14507;52.418;13.398;2023-06-14T07:12:49;8.83;;;5.57;;
26951;SDS011;14507;52.418;13.398;2023-06-14T07:15:15;13.23;;;5.65;;
26951;SDS011;14507;52.418;13.398;2023-06-14T07:17:41;10.20;;;5.65;;
26951;SDS011;14507;52.418;13.398;2023-06-14T07:20:08;9.07;;;5.72;;
26951;SDS011;14507;52.418;13.398;2023-06-14T07:22:42;11.32;;;5.30;;
26951;SDS011;14507;52.418;13.398;2023-06-14T07:25:08;10.40;;;5.82;;
26951;SDS011;14507;52.418;13.398;2023-06-14T07:27:35;9.07;;;5.43;;
26951;SDS011;14507;52.418;13.398;2023-06-14T07:30:00;12.57;;;5.97;;
26951;SDS011;14507;52.418;13.398;2023-06-14T07:32:26;10.82;;;5.40;;
26951;SDS011;14507;52.418;13.398;2023-06-14T07:34:51;14.13;;;5.35;;
26951;SDS011;14507;52.418;13.398;2023-06-14T07:37:17;16.10;;;5.20;;
26951;SDS011;14507;52.418;13.398;2023-06-14T07:39:43;13.73;;;5.32;;
26951;SDS011;14507;52.418;13.398;2023-06-14T07:42:08;12.63;;;5.32;;
26951;SDS011;14507;52.418;13.398;2023-06-14T07:44:34;10.52;;;5.93;;
26951;SDS011;14507;52.418;13.398;2023-06-14T07:46:59;10.43;;;5.20;;
26951;SDS011;14507;52.418;13.398;2023-06-14T07:49:26;9.52;;;5.07;;
26951;SDS011;14507;52.418;13.398;2023-06-14T07:51:52;11.50;;;4.88;;
26951;SDS011;14507;52.418;13.398;2023-06-14T07:54:18;10.43;;;4.82;;
26951;SDS011;14507;52.418;13.398;2023-06-14T07:56:44;11.48;;;5.25;;
26951;SDS011;14507;52.418;13.398;2023-06-14T07:59:10;11.63;;;4.95;;
26951;SDS011;14507;52.418;13.398;2023-06-14T08:01:35;10.38;;;5.32;;
26951;SDS011;14507;52.418;13.398;2023-06-14T08:04:01;8.93;;;4.32;;
26951;SDS011;14507;52.418;13.398;2023-06-14T08:06:27;11.55;;;5.28;;
26951;SDS011;14507;52.418;13.398;2023-06-14T08:08:52;9.32;;;4.85;;
26951;SDS011;14507;52.418;13.398;2023-06-14T08:11:18;12.55;;;5.30;;
26951;SDS011;14507;52.418;13.398;2023-06-14T08:13:44;13.68;;;4.95;;
26951;SDS011;14507;52.418;13.398;2023-06-14T08:16:09;8.90;;;4.78;;
26951;SDS011;14507;52.418;13.398;2023-06-14T08:18:35;10.90;;;4.60;;
26951;SDS011;14507;52.418;13.398;2023-06-14T08:21:01;7.88;;;4.82;;
26951;SDS011;14507;52.418;13.398;2023-06-14T08:23:28;14.13;;;4.88;;
26951;SDS011;14507;52.418;13.398;2023-06-14T08:25:54;7.10;;;4.05;;
26951;SDS011;14507;52.418;13.398;2023-06-14T08:28:20;9.85;;;3.85;;
26951;SDS011;14507;52.418;13.398;2023-06-14T08:30:45;10.25;;;3.85;;
26951;SDS011;14507;52.418;13.398;2023-06-14T08:33:11;9.85;;;4.22;;
26951;SDS011;14507;52.418;13.398;2023-06-14T08:35:37;6.47;;;3.55;;
26951;SDS011;14507;52.418;13.398;2023-06-14T08:38:04;9.32;;;3.72;;
26951;SDS011;14507;52.418;13.398;2023-06-14T08:40:30;9.43;;;3.60;;
26951;SDS011;14507;52.418;13.398;2023-06-14T08:42:57;8.38;;;3.88;;
26951;SDS011;14507;52.418;13.398;2023-06-14T08:45:23;10.52;;;3.45;;
26951;SDS011;14507;52.418;13.398;2023-06-14T08:47:50;5.90;;;3.17;;
26951;SDS011;14507;52.418;13.398;2023-06-14T08:50:23;8.00;;;3.60;;
26951;SDS011;14507;52.418;13.398;2023-06-14T08:52:55;13.82;;;3.85;;
26951;SDS011;14507;52.418;13.398;2023-06-14T08:55:28;6.53;;;3.50;;
26951;SDS011;14507;52.418;13.398;2023-06-14T08:57:56;7.82;;;3.70;;
26951;SDS011;14507;52.418;13.398;2023-06-14T09:00:23;8.88;;;4.03;;
26951;SDS011;14507;52.418;13.398;2023-06-14T09:02:50;8.70;;;3.22;;
26951;SDS011;14507;52.418;13.398;2023-06-14T09:05:21;6.15;;;3.28;;
26951;SDS011;14507;52.418;13.398;2023-06-14T09:07:51;7.15;;;3.33;;
26951;SDS011;14507;52.418;13.398;2023-06-14T09:10:17;7.10;;;3.33;;
26951;SDS011;14507;52.418;13.398;2023-06-14T09:12:43;8.00;;;3.70;;
26951;SDS011;14507;52.418;13.398;2023-06-14T09:15:09;8.93;;;3.38;;
26951;SDS011;14507;52.418;13.398;2023-06-14T09:17:36;14.75;;;3.78;;
26951;SDS011;14507;52.418;13.398;2023-06-14T09:20:02;12.77;;;3.45;;
26951;SDS011;14507;52.418;13.398;2023-06-14T09:22:35;7.28;;;3.85;;
26951;SDS011;14507;52.418;13.398;2023-06-14T09:25:01;6.65;;;3.13;;
26951;SDS011;14507;52.418;13.398;2023-06-14T09:27:28;7.97;;;2.90;;
26951;SDS011;14507;52.418;13.398;2023-06-14T09:29:54;8.55;;;3.00;;
26951;SDS011;14507;52.418;13.398;2023-06-14T09:32:20;7.25;;;3.22;;
26951;SDS011;14507;52.418;13.398;2023-06-14T09:34:46;7.07;;;3.00;;
26951;SDS011;14507;52.418;13.398;2023-06-14T09:37:12;8.80;;;2.83;;
26951;SDS011;14507;52.418;13.398;2023-06-14T09:39:50;10.70;;;3.60;;
26951;SDS011;14507;52.418;13.398;2023-06-14T09:44:48;9.95;;;3.45;;
26951;SDS011;14507;52.418;13.398;2023-06-14T09:47:15;8.85;;;3.35;;
26951;SDS011;14507;52.418;13.398;2023-06-14T09:49:41;7.05;;;3.33;;
26951;SDS011;14507;52.418;13.398;2023-06-14T09:52:14;7.13;;;3.42;;
26951;SDS011;14507;52.418;13.398;2023-06-14T09:54:41;8.10;;;3.50;;
26951;SDS011;14507;52.418;13.398;2023-06-14T09:57:08;8.20;;;3.17;;
26951;SDS011;14507;52.418;13.398;2023-06-14T09:59:36;6.32;;;2.83;;
26951;SDS011;14507;52.418;13.398;2023-06-14T10:02:08;8.32;;;3.13;;
26951;SDS011;14507;52.418;13.398;2023-06-14T10:04:37;8.70;;;3.30;;
26951;SDS011;14507;52.418;13.398;2023-06-14T10:07:11;9.57;;;3.05;;
26951;SDS011;14507;52.418;13.398;2023-06-14T10:09:38;9.05;;;3.03;;
26951;SDS011;14507;52.418;13.398;2023-06-14T10:12:06;5.95;;;3.17;;
26951;SDS011;14507;52.418;13.398;2023-06-14T10:14:32;5.88;;;3.25;;
26951;SDS011;14507;52.418;13.398;2023-06-14T10:19:44;9.35;;;3.45;;
26951;SDS011;14507;52.418;13.398;2023-06-14T10:22:26;8.00;;;3.42;;
26951;SDS011;14507;52.418;13.398;2023-06-14T10:25:03;7.68;;;3.42;;
26951;SDS011;14507;52.418;13.398;2023-06-14T10:27:37;8.13;;;3.53;;
26951;SDS011;14507;52.418;13.398;2023-06-14T10:30:03;9.48;;;3.30;;
26951;SDS011;14507;52.418;13.398;2023-06-14T10:32:33;6.70;;;3.20;;
26951;SDS011;14507;52.418;13.398;2023-06-14T10:34:59;8.32;;;3.30;;
26951;SDS011;14507;52.418;13.398;2023-06-14T10:37:41;6.70;;;3.45;;
26951;SDS011;14507;52.418;13.398;2023-06-14T10:40:06;9.23;;;3.60;;
26951;SDS011;14507;52.418;13.398;2023-06-14T10:42:33;14.75;;;3.60;;
26951;SDS011;14507;52.418;13.398;2023-06-14T10:44:59;8.85;;;3.60;;
26951;SDS011;14507;52.418;13.398;2023-06-14T10:47:26;7.93;;;3.55;;
26951;SDS011;14507;52.418;13.398;2023-06-14T10:52:36;8.38;;;3.28;;
26951;SDS011;14507;52.418;13.398;2023-06-14T10:55:14;5.93;;;3.13;;
26951;SDS011;14507;52.418;13.398;2023-06-14T10:57:43;7.55;;;3.33;;
26951;SDS011;14507;52.418;13.398;2023-06-14T11:00:17;13.30;;;3.30;;
26951;SDS011;14507;52.418;13.398;2023-06-14T11:05:35;11.15;;;3.65;;
26951;SDS011;14507;52.418;13.398;2023-06-14T11:11:21;7.55;;;3.30;;
26951;SDS011;14507;52.418;13.398;2023-06-14T11:13:50;8.93;;;3.40;;
26951;SDS011;14507;52.418;13.398;2023-06-14T11:16:17;6.18;;;3.20;;
26951;SDS011;14507;52.418;13.398;2023-06-14T11:18:46;12.00;;;3.30;;
26951;SDS011;14507;52.418;13.398;2023-06-14T11:21:15;8.70;;;3.05;;
26951;SDS011;14507;52.418;13.398;2023-06-14T11:23:41;10.52;;;3.05;;
26951;SDS011;14507;52.418;13.398;2023-06-14T11:26:07;8.07;;;3.50;;
26951;SDS011;14507;52.418;13.398;2023-06-14T11:28:37;10.07;;;3.22;;
26951;SDS011;14507;52.418;13.398;2023-06-14T11:31:06;20.65;;;3.70;;
26951;SDS011;14507;52.418;13.398;2023-06-14T11:33:33;12.63;;;3.45;;
26951;SDS011;14507;52.418;13.398;2023-06-14T11:36:01;7.60;;;3.00;;
26951;SDS011;14507;52.418;13.398;2023-06-14T11:38:27;12.23;;;3.20;;
26951;SDS011;14507;52.418;13.398;2023-06-14T11:40:53;9.70;;;3.30;;
26951;SDS011;14507;52.418;13.398;2023-06-14T11:43:23;6.13;;;3.28;;
26951;SDS011;14507;52.418;13.398;2023-06-14T11:48:17;6.25;;;3.40;;
26951;SDS011;14507;52.418;13.398;2023-06-14T11:50:43;10.90;;;3.13;;
26951;SDS011;14507;52.418;13.398;2023-06-14T11:53:09;12.63;;;3.50;;
26951;SDS011;14507;52.418;13.398;2023-06-14T11:55:38;13.20;;;3.35;;
26951;SDS011;14507;52.418;13.398;2023-06-14T11:58:05;10.40;;;3.47;;
26951;SDS011;14507;52.418;13.398;2023-06-14T12:00:32;7.47;;;3.25;;
26951;SDS011;14507;52.418;13.398;2023-06-14T12:02:57;6.30;;;3.00;;
26951;SDS011;14507;52.418;13.398;2023-06-14T12:05:24;7.00;;;3.42;;
26951;SDS011;14507;52.418;13.398;2023-06-14T12:07:57;7.40;;;3.30;;
26951;SDS011;14507;52.418;13.398;2023-06-14T12:10:25;6.63;;;3.38;;
26951;SDS011;14507;52.418;13.398;2023-06-14T12:12:56;5.45;;;3.08;;
26951;SDS011;14507;52.418;13.398;2023-06-14T12:15:23;10.35;;;3.40;;
26951;SDS011;14507;52.418;13.398;2023-06-14T12:17:49;6.45;;;3.08;;
26951;SDS011;14507;52.418;13.398;2023-06-14T12:20:15;8.73;;;3.10;;
26951;SDS011;14507;52.418;13.398;2023-06-14T12:27:54;5.43;;;2.70;;
26951;SDS011;14507;52.418;13.398;2023-06-14T12:30:20;10.63;;;3.35;;
26951;SDS011;14507;52.418;13.398;2023-06-14T12:32:46;9.15;;;3.10;;
26951;SDS011;14507;52.418;13.398;2023-06-14T12:35:11;7.32;;;3.03;;
26951;SDS011;14507;52.418;13.398;2023-06-14T12:37:37;8.02;;;2.78;;
26951;SDS011;14507;52.418;13.398;2023-06-14T12:40:03;8.25;;;2.90;;
26951;SDS011;14507;52.418;13.398;2023-06-14T12:44:56;5.78;;;2.83;;
26951;SDS011;14507;52.418;13.398;2023-06-14T12:47:22;11.52;;;2.80;;
26951;SDS011;14507;52.418;13.398;2023-06-14T12:49:47;7.38;;;3.20;;
26951;SDS011;14507;52.418;13.398;2023-06-14T12:52:13;7.75;;;3.22;;
26951;SDS011;14507;52.418;13.398;2023-06-14T12:54:38;8.52;;;3.10;;
26951;SDS011;14507;52.418;13.398;2023-06-14T12:57:05;10.48;;;3.10;;
26951;SDS011;14507;52.418;13.398;2023-06-14T12:59:31;10.15;;;3.20;;
26951;SDS011;14507;52.418;13.398;2023-06-14T13:01:59;6.90;;;3.05;;
26951;SDS011;14507;52.418;13.398;2023-06-14T13:04:35;7.57;;;3.17;;
26951;SDS011;14507;52.418;13.398;2023-06-14T13:07:00;8.95;;;3.13;;
26951;SDS011;14507;52.418;13.398;2023-06-14T13:09:26;7.18;;;3.17;;
26951;SDS011;14507;52.418;13.398;2023-06-14T13:11:52;12.32;;;3.55;;
26951;SDS011;14507;52.418;13.398;2023-06-14T13:14:17;5.63;;;3.08;;
26951;SDS011;14507;52.418;13.398;2023-06-14T13:16:44;5.70;;;3.08;;
26951;SDS011;14507;52.418;13.398;2023-06-14T13:19:10;9.07;;;3.22;;
26951;SDS011;14507;52.418;13.398;2023-06-14T13:21:36;8.07;;;3.38;;
26951;SDS011;14507;52.418;13.398;2023-06-14T13:24:01;7.95;;;3.33;;
26951;SDS011;14507;52.418;13.398;2023-06-14T13:26:27;8.00;;;3.25;;
26951;SDS011;14507;52.418;13.398;2023-06-14T13:28:52;8.88;;;3.10;;
26951;SDS011;14507;52.418;13.398;2023-06-14T13:31:18;8.50;;;2.83;;
26951;SDS011;14507;52.418;13.398;2023-06-14T13:33:44;6.55;;;2.90;;
26951;SDS011;14507;52.418;13.398;2023-06-14T13:36:09;10.32;;;3.10;;
26951;SDS011;14507;52.418;13.398;2023-06-14T13:38:35;6.57;;;3.30;;
26951;SDS011;14507;52.418;13.398;2023-06-14T13:41:01;12.82;;;3.08;;
26951;SDS011;14507;52.418;13.398;2023-06-14T13:43:26;9.88;;;3.03;;
26951;SDS011;14507;52.418;13.398;2023-06-14T13:45:52;8.35;;;3.38;;
26951;SDS011;14507;52.418;13.398;2023-06-14T13:48:18;5.03;;;2.70;;
26951;SDS011;14507;52.418;13.398;2023-06-14T13:50:44;9.85;;;3.92;;
26951;SDS011;14507;52.418;13.398;2023-06-14T13:53:11;8.35;;;2.92;;
26951;SDS011;14507;52.418;13.398;2023-06-14T13:55:37;10.27;;;3.42;;
26951;SDS011;14507;52.418;13.398;2023-06-14T13:58:02;6.75;;;3.15;;
26951;SDS011;14507;52.418;13.398;2023-06-14T14:00:28;6.40;;;3.03;;
26951;SDS011;14507;52.418;13.398;2023-06-14T14:02:53;6.07;;;2.92;;
26951;SDS011;14507;52.418;13.398;2023-06-14T14:05:19;9.48;;;3.00;;
26951;SDS011;14507;52.418;13.398;2023-06-14T14:07:45;11.30;;;3.28;;
26951;SDS011;14507;52.418;13.398;2023-06-14T14:10:11;6.00;;;2.95;;
26951;SDS011;14507;52.418;13.398;2023-06-14T14:12:38;11.05;;;3.20;;
26951;SDS011;14507;52.418;13.398;2023-06-14T14:15:04;8.98;;;3.40;;
26951;SDS011;14507;52.418;13.398;2023-06-14T14:17:37;8.55;;;3.00;;
26951;SDS011;14507;52.418;13.398;2023-06-14T14:20:03;8.90;;;3.33;;
26951;SDS011;14507;52.418;13.398;2023-06-14T14:22:29;6.03;;;2.78;;
26951;SDS011;14507;52.418;13.398;2023-06-14T14:24:55;6.57;;;3.15;;
26951;SDS011;14507;52.418;13.398;2023-06-14T14:27:20;9.18;;;3.70;;
26951;SDS011;14507;52.418;13.398;2023-06-14T14:29:46;13.65;;;3.35;;
26951;SDS011;14507;52.418;13.398;2023-06-14T14:32:11;7.88;;;2.72;;
26951;SDS011;14507;52.418;13.398;2023-06-14T14:34:39;5.68;;;3.17;;
26951;SDS011;14507;52.418;13.398;2023-06-14T14:37:05;10.60;;;3.05;;
26951;SDS011;14507;52.418;13.398;2023-06-14T14:39:30;5.82;;;2.85;;
26951;SDS011;14507;52.418;13.398;2023-06-14T14:41:56;8.60;;;3.00;;
26951;SDS011;14507;52.418;13.398;2023-06-14T14:44:22;7.88;;;3.40;;
26951;SDS011;14507;52.418;13.398;2023-06-14T14:46:47;5.97;;;3.08;;
26951;SDS011;14507;52.418;13.398;2023-06-14T14:49:13;6.90;;;3.08;;
26951;SDS011;14507;52.418;13.398;2023-06-14T14:51:38;6.78;;;3.20;;
26951;SDS011;14507;52.418;13.398;2023-06-14T14:54:05;5.05;;;2.85;;
26951;SDS011;14507;52.418;13.398;2023-06-14T14:56:31;8.88;;;3.63;;
26951;SDS011;14507;52.418;13.398;2023-06-14T14:58:57;7.10;;;2.60;;
26951;SDS011;14507;52.418;13.398;2023-06-14T15:01:23;6.78;;;3.33;;
26951;SDS011;14507;52.418;13.398;2023-06-14T15:03:48;13.00;;;3.30;;
26951;SDS011;14507;52.418;13.398;2023-06-14T15:06:14;6.60;;;3.10;;